createdAt,value
2022-11-08T00:00:06.209Z,46.20
2022-11-08T00:02:34.503Z,46.20
2022-11-08T00:05:20.016Z,46.80
2022-11-08T00:08:06.736Z,46.30
2022-11-08T00:10:52.325Z,46.70
2022-11-08T00:13:37.710Z,46.30
2022-11-08T00:16:05.946Z,46.60
2022-11-08T00:18:33.915Z,47.10
2022-11-08T00:21:03.239Z,47.20
2022-11-08T00:23:32.557Z,48.20
2022-11-08T00:26:00.482Z,47.90
2022-11-08T00:28:28.453Z,48.60
2022-11-08T00:30:56.425Z,48.70
2022-11-08T00:33:24.361Z,49.00
2022-11-08T00:35:52.314Z,49.00
2022-11-08T00:38:20.489Z,48.80
2022-11-08T00:40:50.014Z,48.70
2022-11-08T00:43:17.984Z,48.20
2022-11-08T00:45:45.943Z,48.50
2022-11-08T00:48:13.956Z,48.90
2022-11-08T00:50:42.175Z,49.70
2022-11-08T00:53:10.167Z,49.30
2022-11-08T00:55:38.136Z,49.40
2022-11-08T00:58:08.810Z,49.40
2022-11-08T01:00:36.774Z,49.70
2022-11-08T01:03:19.969Z,49.30
2022-11-08T01:05:48.589Z,49.50
2022-11-08T01:08:17.256Z,49.40
2022-11-08T01:10:47.539Z,48.50
2022-11-08T01:13:18.217Z,48.00
2022-11-08T01:15:47.063Z,48.20
2022-11-08T01:18:17.166Z,47.40
2022-11-08T01:20:47.714Z,47.90
2022-11-08T01:23:16.807Z,47.30
2022-11-08T01:25:47.005Z,47.60
2022-11-08T01:28:16.959Z,47.40
2022-11-08T01:30:46.207Z,47.00
2022-11-08T01:33:15.205Z,46.40
2022-11-08T01:35:46.887Z,46.50
2022-11-08T01:38:15.220Z,46.90
2022-11-08T01:40:45.194Z,47.20
2022-11-08T01:43:36.018Z,46.50
2022-11-08T01:46:37.597Z,46.40
2022-11-08T01:49:27.427Z,45.40
2022-11-08T01:52:02.270Z,45.10
2022-11-08T01:54:35.832Z,44.60
2022-11-08T01:57:06.474Z,43.80
2022-11-08T01:59:42.789Z,43.50
2022-11-08T02:02:12.177Z,44.00
2022-11-08T02:04:42.154Z,42.90
2022-11-08T02:07:12.299Z,43.00
2022-11-08T02:09:42.684Z,43.60
2022-11-08T02:12:13.862Z,43.90
2022-11-08T02:14:43.253Z,43.80
2022-11-08T02:17:11.793Z,44.00
2022-11-08T02:19:43.084Z,45.00
2022-11-08T02:22:18.470Z,45.40
2022-11-08T02:24:48.570Z,44.80
2022-11-08T02:27:16.560Z,45.10
2022-11-08T02:29:44.703Z,44.70
2022-11-08T02:32:12.723Z,44.30
2022-11-08T02:34:45.548Z,45.50
2022-11-08T02:37:16.661Z,44.50
2022-11-08T02:39:46.243Z,44.40
2022-11-08T02:42:16.574Z,44.30
2022-11-08T02:44:44.498Z,44.20
2022-11-08T02:47:12.727Z,45.50
2022-11-08T02:49:40.771Z,45.70
2022-11-08T02:52:09.022Z,46.50
2022-11-08T02:54:36.982Z,48.00
2022-11-08T02:57:04.984Z,47.60
2022-11-08T02:59:36.600Z,47.80
2022-11-08T03:02:04.713Z,48.10
2022-11-08T03:04:33.012Z,48.60
2022-11-08T03:07:00.939Z,48.10
2022-11-08T03:09:28.872Z,48.40
2022-11-08T03:11:56.814Z,47.90
2022-11-08T03:14:24.775Z,48.40
2022-11-08T03:16:54.374Z,48.00
2022-11-08T03:19:22.319Z,48.30
2022-11-08T03:21:50.360Z,48.60
2022-11-08T03:24:18.373Z,49.40
2022-11-08T03:26:46.298Z,48.90
2022-11-08T03:29:15.506Z,48.10
2022-11-08T03:31:43.448Z,47.50
2022-11-08T03:34:12.773Z,47.40
2022-11-08T03:36:40.735Z,46.50
2022-11-08T03:39:08.695Z,45.90
2022-11-08T03:41:36.595Z,45.20
2022-11-08T03:44:04.560Z,44.90
2022-11-08T03:46:32.501Z,45.40
2022-11-08T03:49:00.479Z,46.00
2022-11-08T03:51:29.767Z,46.60
2022-11-08T03:53:57.743Z,45.60
2022-11-08T03:56:25.678Z,44.90
2022-11-08T03:58:53.614Z,44.80
2022-11-08T04:01:21.612Z,44.60
2022-11-08T04:03:49.617Z,44.30
2022-11-08T04:06:17.579Z,43.70
2022-11-08T04:08:47.070Z,43.70
2022-11-08T04:11:32.533Z,44.00
2022-11-08T04:14:18.183Z,44.40
2022-11-08T04:16:48.673Z,45.10
2022-11-08T04:19:34.294Z,45.90
2022-11-08T04:22:02.258Z,46.10
2022-11-08T04:24:31.532Z,46.20
2022-11-08T04:26:59.531Z,45.50
2022-11-08T04:29:27.485Z,45.30
2022-11-08T04:31:55.480Z,45.00
2022-11-08T04:34:23.481Z,44.00
2022-11-08T04:36:51.410Z,44.10
2022-11-08T04:39:19.564Z,43.40
2022-11-08T04:41:48.870Z,43.50
2022-11-08T04:44:18.337Z,43.70
2022-11-08T04:46:46.302Z,43.80
2022-11-08T04:49:14.213Z,43.60
2022-11-08T04:51:42.173Z,44.40
2022-11-08T04:54:11.754Z,44.00
2022-11-08T04:56:41.607Z,43.50
2022-11-08T04:59:12.241Z,44.20
2022-11-08T05:01:40.673Z,43.50
2022-11-08T05:04:08.765Z,44.10
2022-11-08T05:06:36.724Z,45.10
2022-11-08T05:09:05.054Z,44.10
2022-11-08T05:11:34.157Z,44.00
2022-11-08T05:14:02.294Z,44.40
2022-11-08T05:16:34.684Z,44.10
2022-11-08T05:19:02.707Z,44.70
2022-11-08T05:21:48.407Z,44.00
2022-11-08T05:24:18.465Z,43.60
2022-11-08T05:26:48.161Z,43.60
2022-11-08T05:29:17.246Z,43.40
2022-11-08T05:31:46.989Z,44.60
2022-11-08T05:34:14.942Z,44.20
2022-11-08T05:36:43.159Z,44.60
2022-11-08T05:39:11.197Z,44.70
2022-11-08T05:41:39.116Z,45.30
2022-11-08T05:44:07.157Z,46.30
2022-11-08T05:46:35.233Z,46.20
2022-11-08T05:49:04.516Z,46.60
2022-11-08T05:51:33.174Z,47.40
2022-11-08T05:54:01.149Z,47.40
2022-11-08T05:56:29.174Z,48.10
2022-11-08T05:58:57.133Z,47.60
2022-11-08T06:01:25.207Z,47.20
2022-11-08T06:03:53.216Z,47.10
2022-11-08T06:06:23.121Z,47.10
2022-11-08T06:08:51.805Z,46.80
2022-11-08T06:11:22.593Z,46.50
2022-11-08T06:13:50.799Z,45.70
2022-11-08T06:16:20.273Z,45.40
2022-11-08T06:18:48.732Z,44.80
2022-11-08T06:21:18.865Z,44.70
2022-11-08T06:23:48.814Z,44.40
2022-11-08T06:26:16.758Z,45.10
2022-11-08T06:28:44.717Z,45.70
2022-11-08T06:31:12.680Z,45.50
2022-11-08T06:33:40.602Z,45.30
2022-11-08T06:36:09.416Z,45.70
2022-11-08T06:38:37.421Z,46.10
2022-11-08T06:41:06.820Z,46.00
2022-11-08T06:43:35.118Z,46.10
2022-11-08T06:46:03.357Z,46.10
2022-11-08T06:48:35.950Z,46.20
2022-11-08T06:51:05.107Z,45.80
2022-11-08T06:53:33.747Z,45.30
2022-11-08T06:56:01.812Z,45.40
2022-11-08T06:58:32.082Z,45.30
2022-11-08T07:01:03.346Z,45.70
2022-11-08T07:03:31.946Z,46.00
2022-11-08T07:06:02.735Z,45.70
2022-11-08T07:08:30.848Z,45.70
2022-11-08T07:10:59.121Z,45.60
2022-11-08T07:13:27.310Z,45.70
2022-11-08T07:15:59.854Z,45.60
2022-11-08T07:18:28.981Z,45.70
2022-11-08T07:20:59.995Z,45.50
2022-11-08T07:23:28.037Z,45.10
2022-11-08T07:25:56.202Z,44.80
2022-11-08T07:28:24.148Z,44.60
2022-11-08T07:30:52.126Z,44.40
2022-11-08T07:33:21.839Z,44.20
2022-11-08T07:35:50.113Z,43.80
2022-11-08T07:38:18.029Z,43.70
2022-11-08T07:40:46.014Z,43.60
2022-11-08T07:43:17.281Z,43.50
2022-11-08T07:45:45.253Z,43.20
2022-11-08T07:48:14.416Z,43.10
2022-11-08T07:50:43.992Z,43.40
2022-11-08T07:53:12.238Z,43.60
2022-11-08T07:55:41.244Z,43.60
2022-11-08T07:58:11.303Z,43.80
2022-11-08T08:00:41.225Z,43.80
2022-11-08T08:03:10.820Z,44.80
2022-11-08T08:05:41.863Z,44.50
2022-11-08T08:08:12.266Z,43.90
2022-11-08T08:10:41.173Z,43.20
2022-11-08T08:13:09.398Z,43.70
2022-11-08T08:15:37.398Z,43.20
2022-11-08T08:18:08.030Z,42.60
2022-11-08T08:20:36.346Z,42.90
2022-11-08T08:23:04.274Z,43.40
2022-11-08T08:25:33.570Z,43.20
2022-11-08T08:28:02.140Z,42.90
2022-11-08T08:30:32.022Z,42.60
2022-11-08T08:33:27.367Z,42.70
2022-11-08T08:35:57.503Z,42.40
2022-11-08T08:38:25.549Z,42.50
2022-11-08T08:40:54.837Z,42.20
2022-11-08T08:43:24.051Z,42.20
2022-11-08T08:45:51.995Z,42.20
2022-11-08T08:48:19.930Z,42.40
2022-11-08T08:50:48.154Z,41.90
2022-11-08T08:53:16.515Z,42.20
2022-11-08T08:55:44.770Z,42.00
2022-11-08T08:58:15.517Z,41.50
2022-11-08T09:03:31.708Z,41.70
2022-11-08T09:06:00.166Z,41.80
2022-11-08T09:08:28.737Z,40.80
2022-11-08T09:10:57.681Z,40.80
2022-11-08T09:13:30.747Z,41.10
2022-11-08T09:16:01.238Z,41.60
2022-11-08T09:18:29.276Z,41.40
2022-11-08T09:20:58.503Z,41.30
2022-11-08T09:23:27.141Z,41.40
2022-11-08T09:25:58.791Z,41.40
2022-11-08T09:28:31.153Z,41.00
2022-11-08T09:31:04.958Z,40.70
2022-11-08T09:33:33.438Z,40.60
2022-11-08T09:36:01.993Z,40.70
2022-11-08T09:38:30.468Z,40.20
2022-11-08T09:41:18.953Z,40.30
2022-11-08T09:44:00.044Z,40.50
2022-11-08T09:46:36.615Z,41.20
2022-11-08T09:49:07.615Z,41.00
2022-11-08T09:51:36.884Z,40.00
2022-11-08T09:54:06.480Z,40.60
2022-11-08T09:56:36.810Z,40.60
2022-11-08T09:59:22.098Z,41.10
2022-11-08T10:01:50.417Z,41.10
2022-11-08T10:04:22.524Z,40.90
2022-11-08T10:07:14.168Z,41.10
2022-11-08T10:10:00.733Z,41.40
2022-11-08T10:12:40.506Z,41.20
2022-11-08T10:15:21.863Z,41.40
2022-11-08T10:18:28.710Z,41.90
2022-11-08T10:21:03.887Z,41.40
2022-11-08T10:23:42.979Z,41.60
2022-11-08T10:26:16.785Z,41.70
2022-11-08T10:28:50.184Z,41.40
2022-11-08T10:31:21.026Z,40.90
2022-11-08T10:33:52.565Z,39.90
2022-11-08T10:36:25.385Z,39.60
2022-11-08T10:39:01.764Z,39.70
2022-11-08T10:41:34.784Z,40.00
2022-11-08T10:44:07.587Z,40.80
2022-11-08T10:46:42.314Z,41.60
2022-11-08T10:49:15.167Z,41.00
2022-11-08T10:51:44.718Z,40.80
2022-11-08T10:54:47.512Z,39.40
2022-11-08T10:57:17.351Z,38.70
2022-11-08T10:59:46.548Z,39.50
2022-11-08T11:02:22.671Z,39.30
2022-11-08T11:04:51.304Z,37.70
2022-11-08T11:07:30.607Z,37.30
2022-11-08T11:09:59.060Z,37.00
2022-11-08T11:12:27.028Z,37.40
2022-11-08T11:14:59.733Z,37.10
2022-11-08T11:17:37.275Z,36.70
2022-11-08T11:20:22.103Z,36.80
2022-11-08T11:22:51.874Z,37.70
2022-11-08T11:25:22.330Z,37.50
2022-11-08T11:27:57.986Z,37.40
2022-11-08T11:30:31.905Z,37.70
2022-11-08T11:33:07.072Z,39.20
2022-11-08T11:35:42.847Z,38.80
2022-11-08T11:38:19.662Z,38.30
2022-11-08T11:40:48.528Z,38.70
2022-11-08T11:43:25.308Z,38.80
2022-11-08T11:45:58.978Z,38.30
2022-11-08T11:48:30.107Z,37.20
2022-11-08T11:50:59.266Z,37.20
2022-11-08T11:53:32.815Z,36.90
2022-11-08T11:56:29.142Z,35.90
2022-11-08T11:59:15.556Z,36.40
2022-11-08T12:01:59.319Z,36.70
2022-11-08T12:04:51.189Z,37.40
2022-11-08T12:07:23.204Z,37.70
2022-11-08T12:10:03.384Z,38.50
2022-11-08T12:12:46.072Z,38.60
2022-11-08T12:15:24.356Z,37.90
2022-11-08T12:18:41.010Z,37.00
2022-11-08T12:21:14.804Z,38.00
2022-11-08T12:24:23.955Z,35.70
2022-11-08T12:27:01.557Z,35.10
2022-11-08T12:29:34.896Z,35.90
2022-11-08T12:32:20.683Z,36.20
2022-11-08T12:35:02.367Z,36.50
2022-11-08T12:37:45.683Z,36.20
2022-11-08T12:40:20.659Z,37.00
2022-11-08T12:42:59.256Z,36.60
2022-11-08T12:45:36.386Z,36.10
2022-11-08T12:48:12.135Z,36.10
2022-11-08T12:50:49.767Z,35.90
2022-11-08T12:53:48.679Z,36.30
2022-11-08T12:56:20.473Z,36.70
2022-11-08T12:58:50.493Z,35.70
2022-11-08T13:01:20.496Z,35.60
2022-11-08T13:04:19.954Z,36.10
2022-11-08T13:06:57.204Z,36.30
2022-11-08T13:09:37.407Z,35.70
2022-11-08T13:12:17.388Z,36.60
2022-11-08T13:14:45.501Z,36.10
2022-11-08T13:17:22.868Z,36.10
2022-11-08T13:19:59.479Z,35.40
2022-11-08T13:22:59.102Z,35.60
2022-11-08T13:25:42.873Z,35.30
2022-11-08T13:28:52.816Z,35.80
2022-11-08T13:31:46.260Z,36.40
2022-11-08T13:34:30.990Z,35.70
2022-11-08T13:37:20.783Z,35.80
2022-11-08T13:40:06.126Z,35.60
2022-11-08T13:43:14.448Z,35.50
2022-11-08T13:45:43.266Z,35.90
2022-11-08T13:48:46.637Z,36.10
2022-11-08T13:51:31.214Z,36.60
2022-11-08T13:54:01.167Z,36.30
2022-11-08T13:56:48.159Z,35.90
2022-11-08T14:00:00.101Z,36.20
2022-11-08T14:02:33.110Z,35.80
2022-11-08T14:05:29.510Z,35.80
2022-11-08T14:08:17.830Z,35.60
2022-11-08T14:11:19.361Z,36.20
2022-11-08T14:14:12.661Z,35.60
2022-11-08T14:16:50.102Z,35.90
2022-11-08T14:19:23.256Z,36.20
2022-11-08T14:21:53.780Z,36.70
2022-11-08T14:24:25.337Z,36.70
2022-11-08T14:26:53.439Z,37.10
2022-11-08T14:29:23.684Z,38.00
2022-11-08T14:32:05.131Z,38.90
2022-11-08T14:34:35.153Z,38.90
2022-11-08T14:37:07.121Z,39.60
2022-11-08T14:39:37.123Z,39.70
2022-11-08T14:42:12.960Z,39.80
2022-11-08T14:44:45.086Z,40.90
2022-11-08T14:47:26.010Z,40.90
2022-11-08T14:49:53.999Z,41.40
2022-11-08T14:52:24.486Z,41.60
2022-11-08T14:55:02.461Z,42.10
2022-11-08T14:57:36.953Z,42.70
2022-11-08T15:00:14.549Z,43.30
2022-11-08T15:02:46.635Z,42.70
2022-11-08T15:05:32.512Z,43.20
2022-11-08T15:08:02.599Z,43.00
2022-11-08T15:10:30.721Z,43.40
2022-11-08T15:12:58.942Z,43.20
2022-11-08T15:15:29.660Z,44.00
2022-11-08T15:18:14.229Z,43.90
2022-11-08T15:20:54.039Z,43.40
2022-11-08T15:23:28.039Z,43.60
2022-11-08T15:25:57.590Z,43.40
2022-11-08T15:28:33.713Z,43.60
2022-11-08T15:31:03.659Z,44.10
2022-11-08T15:33:40.758Z,44.30
2022-11-08T15:36:13.218Z,44.40
2022-11-08T15:38:43.432Z,44.10
2022-11-08T15:41:33.150Z,44.30
2022-11-08T15:44:17.744Z,44.30
2022-11-08T15:46:46.101Z,45.90
2022-11-08T15:49:19.071Z,46.70
2022-11-08T15:51:47.241Z,45.70
2022-11-08T15:54:15.642Z,45.40
2022-11-08T15:56:44.283Z,45.50
2022-11-08T15:59:20.913Z,45.10
2022-11-08T16:01:53.805Z,46.20
2022-11-08T16:04:23.421Z,46.60
2022-11-08T16:06:51.836Z,48.10
2022-11-08T16:09:19.836Z,47.10
2022-11-08T16:11:48.569Z,47.30
2022-11-08T16:14:19.314Z,47.90
2022-11-08T16:16:47.686Z,48.60
2022-11-08T16:19:20.315Z,47.90
2022-11-08T16:21:50.161Z,47.10
2022-11-08T16:24:18.811Z,46.60
2022-11-08T16:26:47.725Z,47.00
2022-11-08T16:29:21.420Z,47.60
2022-11-08T16:31:49.992Z,47.00
2022-11-08T16:34:18.250Z,46.50
2022-11-08T16:36:47.633Z,47.60
2022-11-08T16:39:18.677Z,48.10
2022-11-08T16:41:46.934Z,46.90
2022-11-08T16:44:14.973Z,47.00
2022-11-08T16:46:42.945Z,46.90
2022-11-08T16:49:20.745Z,47.10
2022-11-08T16:51:49.660Z,47.60
2022-11-08T16:54:20.906Z,47.20
2022-11-08T16:56:48.897Z,47.00
2022-11-08T16:59:16.859Z,47.60
2022-11-08T17:01:45.406Z,47.30
2022-11-08T17:04:13.454Z,47.30
2022-11-08T17:06:41.521Z,47.30
2022-11-08T17:09:09.600Z,47.50
2022-11-08T17:11:39.706Z,47.50
2022-11-08T17:14:07.839Z,47.30
2022-11-08T17:16:35.881Z,47.20
2022-11-08T17:19:05.187Z,47.70
2022-11-08T17:21:44.682Z,48.50
2022-11-08T17:24:19.751Z,48.00
2022-11-08T17:26:50.738Z,48.50
2022-11-08T17:29:18.916Z,47.80
2022-11-08T17:31:46.905Z,47.80
2022-11-08T17:34:15.062Z,48.40
2022-11-08T17:36:43.350Z,49.10
2022-11-08T17:39:14.046Z,49.40
2022-11-08T17:41:42.271Z,48.70
2022-11-08T17:44:11.587Z,48.20
2022-11-08T17:46:39.520Z,48.60
2022-11-08T17:49:07.711Z,47.70
2022-11-08T17:51:36.584Z,47.90
2022-11-08T17:54:04.784Z,48.20
2022-11-08T17:56:33.002Z,47.70
2022-11-08T17:59:02.558Z,47.90
2022-11-08T18:01:32.186Z,47.40
2022-11-08T18:04:00.206Z,47.70
2022-11-08T18:06:28.252Z,47.90
2022-11-08T18:08:56.751Z,47.20
2022-11-08T18:11:24.889Z,46.80
2022-11-08T18:13:52.866Z,47.80
2022-11-08T18:16:22.707Z,47.50
2022-11-08T18:18:52.533Z,46.00
2022-11-08T18:21:20.949Z,46.20
2022-11-08T18:23:50.165Z,45.50
2022-11-08T18:26:19.327Z,44.90
2022-11-08T18:28:48.520Z,44.10
2022-11-08T18:31:18.469Z,45.60
2022-11-08T18:33:47.126Z,46.70
2022-11-08T18:36:18.189Z,49.10
2022-11-08T18:38:46.211Z,48.30
2022-11-08T18:41:16.011Z,49.40
2022-11-08T18:43:46.505Z,48.00
2022-11-08T18:46:16.387Z,47.50
2022-11-08T18:48:44.869Z,46.80
2022-11-08T18:51:15.125Z,46.50
2022-11-08T18:53:44.557Z,46.70
2022-11-08T18:56:15.193Z,47.30
2022-11-08T18:58:45.330Z,47.70
2022-11-08T19:01:14.170Z,48.40
2022-11-08T19:03:42.508Z,49.50
2022-11-08T19:06:10.470Z,48.10
2022-11-08T19:08:39.495Z,48.10
2022-11-08T19:11:12.917Z,48.40
2022-11-08T19:13:42.195Z,48.60
2022-11-08T19:16:16.739Z,49.50
2022-11-08T19:18:45.736Z,49.80
2022-11-08T19:21:15.790Z,50.00
2022-11-08T19:23:44.068Z,51.10
2022-11-08T19:26:15.783Z,51.40
2022-11-08T19:28:45.471Z,51.90
2022-11-08T19:31:16.709Z,52.70
2022-11-08T19:33:45.046Z,52.80
2022-11-08T19:36:15.485Z,52.50
2022-11-08T19:38:44.093Z,51.80
2022-11-08T19:41:23.864Z,51.30
2022-11-08T19:43:52.037Z,50.10
2022-11-08T19:46:22.438Z,49.70
2022-11-08T19:48:53.955Z,48.70
2022-11-08T19:51:23.189Z,48.20
2022-11-08T19:53:56.005Z,48.30
2022-11-08T19:56:43.778Z,47.60
2022-11-08T19:59:18.951Z,47.10
2022-11-08T20:01:48.023Z,46.20
2022-11-08T20:04:18.346Z,45.50
2022-11-08T20:06:47.085Z,46.30
2022-11-08T20:09:15.106Z,46.60
2022-11-08T20:11:44.768Z,46.40
2022-11-08T20:14:14.156Z,45.50
2022-11-08T20:16:47.879Z,45.80
2022-11-08T20:19:18.835Z,45.60
2022-11-08T20:21:46.865Z,45.20
2022-11-08T20:24:15.916Z,45.30
2022-11-08T20:26:45.669Z,44.50
2022-11-08T20:29:14.684Z,45.40
2022-11-08T20:31:42.935Z,44.80
2022-11-08T20:34:12.958Z,44.60
2022-11-08T20:36:43.822Z,43.90
2022-11-08T20:39:15.521Z,44.40
2022-11-08T20:41:45.137Z,44.30
2022-11-08T20:44:13.600Z,43.50
2022-11-08T20:46:41.875Z,43.60
2022-11-08T20:49:10.126Z,43.10
2022-11-08T20:51:39.264Z,43.60
2022-11-08T20:54:07.414Z,44.40
2022-11-08T20:56:35.742Z,44.00
2022-11-08T20:59:05.696Z,44.30
2022-11-08T21:01:34.274Z,45.10
2022-11-08T21:04:03.045Z,46.60
2022-11-08T21:06:36.011Z,45.40
2022-11-08T21:09:29.876Z,45.30
2022-11-08T21:11:54.063Z,44.90
2022-11-08T21:14:23.884Z,44.80
2022-11-08T21:17:20.405Z,45.30
2022-11-08T21:19:40.320Z,44.30
2022-11-08T21:22:17.271Z,45.10
2022-11-08T21:24:47.809Z,45.10
2022-11-08T21:27:17.705Z,45.50
2022-11-08T21:29:47.026Z,46.10
2022-11-08T21:32:15.053Z,47.00
2022-11-08T21:34:45.752Z,47.70
2022-11-08T21:37:14.236Z,46.90
2022-11-08T21:39:42.568Z,49.40
2022-11-08T21:42:10.493Z,47.30
2022-11-08T21:44:38.424Z,48.80
2022-11-08T21:47:07.708Z,46.80
2022-11-08T21:49:35.742Z,47.20
2022-11-08T21:52:03.713Z,46.30
2022-11-08T21:54:31.656Z,45.30
2022-11-08T21:56:59.568Z,45.20
2022-11-08T21:59:27.709Z,44.90
2022-11-08T22:01:55.601Z,45.00
2022-11-08T22:04:24.847Z,44.70
2022-11-08T22:06:54.974Z,45.20
2022-11-08T22:09:22.927Z,45.20
2022-11-08T22:11:50.974Z,45.30
2022-11-08T22:14:18.915Z,45.90
2022-11-08T22:16:46.889Z,46.70
2022-11-08T22:19:15.274Z,47.40
2022-11-08T22:21:46.104Z,47.70
2022-11-08T22:24:17.082Z,48.00
2022-11-08T22:26:45.369Z,48.00
2022-11-08T22:29:13.565Z,48.00
2022-11-08T22:31:41.978Z,48.80
2022-11-08T22:34:10.802Z,48.20
2022-11-08T22:36:45.041Z,48.90
2022-11-08T22:39:16.011Z,49.50
2022-11-08T22:41:44.392Z,50.20
2022-11-08T22:44:13.240Z,50.10
2022-11-08T22:46:41.607Z,50.90
2022-11-08T22:49:12.288Z,50.30
2022-11-08T22:51:42.150Z,50.10
2022-11-08T22:54:10.232Z,50.00
2022-11-08T22:56:40.173Z,49.50
2022-11-08T22:59:10.619Z,49.20
2022-11-08T23:01:38.590Z,49.10
2022-11-08T23:04:06.746Z,49.40
2022-11-08T23:06:34.702Z,48.30
2022-11-08T23:09:02.692Z,47.30
2022-11-08T23:11:48.087Z,46.70
2022-11-08T23:14:37.473Z,47.30
2022-11-08T23:17:08.091Z,48.00
2022-11-08T23:19:53.810Z,48.30
2022-11-08T23:22:40.270Z,48.00
2022-11-08T23:25:08.948Z,47.90
2022-11-08T23:27:54.411Z,47.90
2022-11-08T23:30:41.450Z,48.80
2022-11-08T23:33:09.449Z,48.70
2022-11-08T23:35:37.395Z,48.90
2022-11-08T23:38:05.300Z,48.30
2022-11-08T23:40:51.041Z,47.50
2022-11-08T23:43:38.135Z,47.20
2022-11-08T23:46:09.186Z,47.30
2022-11-08T23:48:39.169Z,47.00
2022-11-08T23:51:07.960Z,47.20
2022-11-08T23:53:37.222Z,46.20
2022-11-08T23:56:06.281Z,46.60
2022-11-08T23:58:34.644Z,45.40
